sensor_id;sensor_type;location;lat;lon;timestamp;P1;durP1;ratioP1;P2;durP2;ratioP2
75044;SDS011;63614;56.026;35.960;2024-03-29T00:01:35;21.85;;;11.68;;
75044;SDS011;63614;56.026;35.960;2024-03-29T00:04:00;20.13;;;11.05;;
75044;SDS011;63614;56.026;35.960;2024-03-29T00:06:26;21.50;;;11.52;;
75044;SDS011;63614;56.026;35.960;2024-03-29T00:08:52;20.48;;;11.48;;
75044;SDS011;63614;56.026;35.960;2024-03-29T00:11:18;20.35;;;11.30;;
75044;SDS011;63614;56.026;35.960;2024-03-29T00:13:44;26.75;;;11.80;;
75044;SDS011;63614;56.026;35.960;2024-03-29T00:16:09;20.45;;;11.90;;
75044;SDS011;63614;56.026;35.960;2024-03-29T00:21:03;22.15;;;11.82;;
75044;SDS011;63614;56.026;35.960;2024-03-29T00:23:29;25.25;;;11.73;;
75044;SDS011;63614;56.026;35.960;2024-03-29T00:25:55;21.50;;;12.27;;
75044;SDS011;63614;56.026;35.960;2024-03-29T00:28:24;27.38;;;12.95;;
75044;SDS011;63614;56.026;35.960;2024-03-29T00:30:51;24.98;;;13.00;;
75044;SDS011;63614;56.026;35.960;2024-03-29T00:33:17;26.00;;;12.43;;
75044;SDS011;63614;56.026;35.960;2024-03-29T00:35:43;26.52;;;12.35;;
75044;SDS011;63614;56.026;35.960;2024-03-29T00:38:09;23.35;;;13.23;;
75044;SDS011;63614;56.026;35.960;2024-03-29T00:40:38;21.27;;;12.75;;
75044;SDS011;63614;56.026;35.960;2024-03-29T00:43:04;23.67;;;12.32;;
75044;SDS011;63614;56.026;35.960;2024-03-29T00:45:30;26.52;;;13.85;;
75044;SDS011;63614;56.026;35.960;2024-03-29T00:47:56;22.98;;;12.57;;
75044;SDS011;63614;56.026;35.960;2024-03-29T00:50:22;25.25;;;12.52;;
75044;SDS011;63614;56.026;35.960;2024-03-29T00:52:48;25.73;;;12.57;;
75044;SDS011;63614;56.026;35.960;2024-03-29T00:55:14;24.77;;;12.40;;
75044;SDS011;63614;56.026;35.960;2024-03-29T00:57:40;25.00;;;14.05;;
75044;SDS011;63614;56.026;35.960;2024-03-29T01:00:07;28.00;;;13.10;;
75044;SDS011;63614;56.026;35.960;2024-03-29T01:02:35;26.65;;;13.35;;
75044;SDS011;63614;56.026;35.960;2024-03-29T01:05:02;23.30;;;13.07;;
75044;SDS011;63614;56.026;35.960;2024-03-29T01:07:31;24.73;;;13.65;;
75044;SDS011;63614;56.026;35.960;2024-03-29T01:09:57;24.27;;;13.00;;
75044;SDS011;63614;56.026;35.960;2024-03-29T01:12:23;25.83;;;14.00;;
75044;SDS011;63614;56.026;35.960;2024-03-29T01:14:49;29.15;;;13.50;;
75044;SDS011;63614;56.026;35.960;2024-03-29T01:17:16;25.50;;;13.15;;
75044;SDS011;63614;56.026;35.960;2024-03-29T01:19:42;28.55;;;14.93;;
75044;SDS011;63614;56.026;35.960;2024-03-29T01:22:07;27.83;;;12.93;;
75044;SDS011;63614;56.026;35.960;2024-03-29T01:24:33;26.73;;;14.05;;
75044;SDS011;63614;56.026;35.960;2024-03-29T01:27:00;27.98;;;13.60;;
75044;SDS011;63614;56.026;35.960;2024-03-29T01:29:25;25.23;;;14.20;;
75044;SDS011;63614;56.026;35.960;2024-03-29T01:31:51;28.45;;;14.25;;
75044;SDS011;63614;56.026;35.960;2024-03-29T01:34:17;31.05;;;14.25;;
75044;SDS011;63614;56.026;35.960;2024-03-29T01:36:43;27.13;;;13.32;;
75044;SDS011;63614;56.026;35.960;2024-03-29T01:39:09;20.42;;;12.27;;
75044;SDS011;63614;56.026;35.960;2024-03-29T01:41:40;23.88;;;12.50;;
75044;SDS011;63614;56.026;35.960;2024-03-29T01:44:06;23.75;;;12.88;;
75044;SDS011;63614;56.026;35.960;2024-03-29T01:46:32;22.45;;;12.93;;
75044;SDS011;63614;56.026;35.960;2024-03-29T01:49:01;23.90;;;14.02;;
75044;SDS011;63614;56.026;35.960;2024-03-29T01:51:28;22.38;;;13.32;;
75044;SDS011;63614;56.026;35.960;2024-03-29T01:53:54;31.55;;;13.50;;
75044;SDS011;63614;56.026;35.960;2024-03-29T01:56:21;26.60;;;13.30;;
75044;SDS011;63614;56.026;35.960;2024-03-29T01:58:51;30.40;;;13.75;;
75044;SDS011;63614;56.026;35.960;2024-03-29T02:01:21;27.88;;;13.63;;
75044;SDS011;63614;56.026;35.960;2024-03-29T02:03:48;27.00;;;13.98;;
75044;SDS011;63614;56.026;35.960;2024-03-29T02:06:16;23.75;;;13.38;;
75044;SDS011;63614;56.026;35.960;2024-03-29T02:08:42;22.52;;;13.05;;
75044;SDS011;63614;56.026;35.960;2024-03-29T02:11:08;28.42;;;13.82;;
75044;SDS011;63614;56.026;35.960;2024-03-29T02:13:34;25.75;;;12.98;;
75044;SDS011;63614;56.026;35.960;2024-03-29T02:16:00;22.80;;;12.60;;
75044;SDS011;63614;56.026;35.960;2024-03-29T02:18:26;25.27;;;12.65;;
75044;SDS011;63614;56.026;35.960;2024-03-29T02:20:52;19.10;;;11.68;;
75044;SDS011;63614;56.026;35.960;2024-03-29T02:23:25;21.58;;;12.07;;
75044;SDS011;63614;56.026;35.960;2024-03-29T02:25:53;27.02;;;12.73;;
75044;SDS011;63614;56.026;35.960;2024-03-29T02:28:20;24.80;;;11.87;;
75044;SDS011;63614;56.026;35.960;2024-03-29T02:33:14;24.20;;;11.70;;
75044;SDS011;63614;56.026;35.960;2024-03-29T02:35:40;24.95;;;12.43;;
75044;SDS011;63614;56.026;35.960;2024-03-29T02:38:06;24.92;;;11.73;;
75044;SDS011;63614;56.026;35.960;2024-03-29T02:40:32;23.63;;;11.55;;
75044;SDS011;63614;56.026;35.960;2024-03-29T02:42:57;20.77;;;11.15;;
75044;SDS011;63614;56.026;35.960;2024-03-29T02:45:23;25.40;;;11.20;;
75044;SDS011;63614;56.026;35.960;2024-03-29T02:47:49;23.17;;;10.95;;
75044;SDS011;63614;56.026;35.960;2024-03-29T02:50:15;20.52;;;11.30;;
75044;SDS011;63614;56.026;35.960;2024-03-29T02:52:42;24.95;;;11.98;;
75044;SDS011;63614;56.026;35.960;2024-03-29T02:55:08;21.45;;;11.25;;
75044;SDS011;63614;56.026;35.960;2024-03-29T02:57:36;27.08;;;11.52;;
75044;SDS011;63614;56.026;35.960;2024-03-29T03:00:04;20.92;;;10.88;;
75044;SDS011;63614;56.026;35.960;2024-03-29T03:02:31;24.15;;;11.52;;
75044;SDS011;63614;56.026;35.960;2024-03-29T03:04:57;19.35;;;10.52;;
75044;SDS011;63614;56.026;35.960;2024-03-29T03:07:25;20.90;;;10.85;;
75044;SDS011;63614;56.026;35.960;2024-03-29T03:10:09;21.45;;;11.70;;
75044;SDS011;63614;56.026;35.960;2024-03-29T03:12:53;18.40;;;10.90;;
75044;SDS011;63614;56.026;35.960;2024-03-29T03:15:19;20.95;;;11.63;;
75044;SDS011;63614;56.026;35.960;2024-03-29T03:17:44;21.75;;;11.45;;
75044;SDS011;63614;56.026;35.960;2024-03-29T03:20:10;21.73;;;10.63;;
75044;SDS011;63614;56.026;35.960;2024-03-29T03:22:38;20.65;;;11.00;;
75044;SDS011;63614;56.026;35.960;2024-03-29T03:25:05;20.73;;;11.43;;
75044;SDS011;63614;56.026;35.960;2024-03-29T03:27:31;19.25;;;10.63;;
75044;SDS011;63614;56.026;35.960;2024-03-29T03:29:57;23.67;;;11.70;;
75044;SDS011;63614;56.026;35.960;2024-03-29T03:32:23;26.88;;;10.70;;
75044;SDS011;63614;56.026;35.960;2024-03-29T03:34:48;22.85;;;10.93;;
75044;SDS011;63614;56.026;35.960;2024-03-29T03:37:14;21.42;;;11.40;;
75044;SDS011;63614;56.026;35.960;2024-03-29T03:39:40;19.42;;;10.25;;
75044;SDS011;63614;56.026;35.960;2024-03-29T03:42:06;21.80;;;10.48;;
75044;SDS011;63614;56.026;35.960;2024-03-29T03:44:32;19.95;;;10.23;;
75044;SDS011;63614;56.026;35.960;2024-03-29T03:46:57;22.83;;;11.30;;
75044;SDS011;63614;56.026;35.960;2024-03-29T03:49:23;20.80;;;10.77;;
75044;SDS011;63614;56.026;35.960;2024-03-29T03:51:49;23.08;;;10.48;;
75044;SDS011;63614;56.026;35.960;2024-03-29T03:54:15;23.52;;;10.60;;
75044;SDS011;63614;56.026;35.960;2024-03-29T03:56:41;24.00;;;10.35;;
75044;SDS011;63614;56.026;35.960;2024-03-29T03:59:06;23.27;;;10.07;;
75044;SDS011;63614;56.026;35.960;2024-03-29T04:01:33;18.60;;;10.95;;
75044;SDS011;63614;56.026;35.960;2024-03-29T04:04:00;22.35;;;10.48;;
75044;SDS011;63614;56.026;35.960;2024-03-29T04:06:26;20.30;;;10.27;;
75044;SDS011;63614;56.026;35.960;2024-03-29T04:08:51;21.75;;;10.43;;
75044;SDS011;63614;56.026;35.960;2024-03-29T04:11:17;22.25;;;9.85;;
75044;SDS011;63614;56.026;35.960;2024-03-29T04:13:45;23.13;;;10.05;;
75044;SDS011;63614;56.026;35.960;2024-03-29T04:16:11;22.17;;;9.80;;
75044;SDS011;63614;56.026;35.960;2024-03-29T04:18:37;23.92;;;10.30;;
75044;SDS011;63614;56.026;35.960;2024-03-29T04:21:03;21.38;;;10.38;;
75044;SDS011;63614;56.026;35.960;2024-03-29T04:23:30;18.75;;;9.77;;
75044;SDS011;63614;56.026;35.960;2024-03-29T04:25:56;22.90;;;10.88;;
75044;SDS011;63614;56.026;35.960;2024-03-29T04:28:23;18.90;;;9.52;;
75044;SDS011;63614;56.026;35.960;2024-03-29T04:30:57;22.02;;;9.55;;
75044;SDS011;63614;56.026;35.960;2024-03-29T04:33:24;17.73;;;9.27;;
75044;SDS011;63614;56.026;35.960;2024-03-29T04:35:54;17.42;;;9.27;;
75044;SDS011;63614;56.026;35.960;2024-03-29T04:38:21;20.52;;;9.82;;
75044;SDS011;63614;56.026;35.960;2024-03-29T04:40:47;18.70;;;9.68;;
75044;SDS011;63614;56.026;35.960;2024-03-29T04:43:14;25.15;;;9.80;;
75044;SDS011;63614;56.026;35.960;2024-03-29T04:45:40;19.25;;;9.30;;
75044;SDS011;63614;56.026;35.960;2024-03-29T04:48:06;17.05;;;8.80;;
75044;SDS011;63614;56.026;35.960;2024-03-29T04:50:32;19.80;;;9.60;;
75044;SDS011;63614;56.026;35.960;2024-03-29T04:52:58;21.35;;;9.38;;
75044;SDS011;63614;56.026;35.960;2024-03-29T04:55:24;19.67;;;9.82;;
75044;SDS011;63614;56.026;35.960;2024-03-29T04:57:49;17.85;;;8.80;;
75044;SDS011;63614;56.026;35.960;2024-03-29T05:00:15;16.80;;;9.20;;
75044;SDS011;63614;56.026;35.960;2024-03-29T05:02:41;18.83;;;9.25;;
75044;SDS011;63614;56.026;35.960;2024-03-29T05:05:07;22.98;;;10.05;;
75044;SDS011;63614;56.026;35.960;2024-03-29T05:07:33;17.15;;;9.63;;
75044;SDS011;63614;56.026;35.960;2024-03-29T05:09:58;20.10;;;8.95;;
75044;SDS011;63614;56.026;35.960;2024-03-29T05:12:25;18.85;;;9.30;;
75044;SDS011;63614;56.026;35.960;2024-03-29T05:14:51;20.02;;;9.25;;
75044;SDS011;63614;56.026;35.960;2024-03-29T05:17:17;23.13;;;9.75;;
75044;SDS011;63614;56.026;35.960;2024-03-29T05:19:45;20.15;;;8.90;;
75044;SDS011;63614;56.026;35.960;2024-03-29T05:22:11;20.48;;;9.20;;
75044;SDS011;63614;56.026;35.960;2024-03-29T05:24:37;21.85;;;9.30;;
75044;SDS011;63614;56.026;35.960;2024-03-29T05:27:03;21.83;;;9.38;;
75044;SDS011;63614;56.026;35.960;2024-03-29T05:29:29;24.35;;;9.30;;
75044;SDS011;63614;56.026;35.960;2024-03-29T05:31:55;19.30;;;9.27;;
75044;SDS011;63614;56.026;35.960;2024-03-29T05:34:21;18.33;;;9.10;;
75044;SDS011;63614;56.026;35.960;2024-03-29T05:36:46;19.95;;;9.05;;
75044;SDS011;63614;56.026;35.960;2024-03-29T05:39:12;18.85;;;8.38;;
75044;SDS011;63614;56.026;35.960;2024-03-29T05:41:38;20.98;;;10.52;;
75044;SDS011;63614;56.026;35.960;2024-03-29T05:44:04;18.17;;;9.13;;
75044;SDS011;63614;56.026;35.960;2024-03-29T05:46:31;21.83;;;8.88;;
75044;SDS011;63614;56.026;35.960;2024-03-29T05:48:57;24.42;;;10.18;;
75044;SDS011;63614;56.026;35.960;2024-03-29T05:51:23;23.13;;;9.98;;
75044;SDS011;63614;56.026;35.960;2024-03-29T05:53:48;19.95;;;9.43;;
75044;SDS011;63614;56.026;35.960;2024-03-29T05:56:14;21.33;;;9.70;;
75044;SDS011;63614;56.026;35.960;2024-03-29T05:58:40;15.93;;;9.05;;
75044;SDS011;63614;56.026;35.960;2024-03-29T06:01:07;17.60;;;9.07;;
75044;SDS011;63614;56.026;35.960;2024-03-29T06:03:33;21.58;;;9.43;;
75044;SDS011;63614;56.026;35.960;2024-03-29T06:05:58;16.25;;;8.93;;
75044;SDS011;63614;56.026;35.960;2024-03-29T06:08:24;17.55;;;9.20;;
75044;SDS011;63614;56.026;35.960;2024-03-29T06:10:53;18.98;;;9.55;;
75044;SDS011;63614;56.026;35.960;2024-03-29T06:13:19;24.30;;;9.82;;
75044;SDS011;63614;56.026;35.960;2024-03-29T06:16:03;18.00;;;9.10;;
75044;SDS011;63614;56.026;35.960;2024-03-29T06:18:48;17.35;;;9.18;;
75044;SDS011;63614;56.026;35.960;2024-03-29T06:21:14;17.05;;;10.23;;
75044;SDS011;63614;56.026;35.960;2024-03-29T06:23:41;18.95;;;9.85;;
75044;SDS011;63614;56.026;35.960;2024-03-29T06:26:07;20.58;;;10.07;;
75044;SDS011;63614;56.026;35.960;2024-03-29T06:28:32;20.05;;;10.65;;
75044;SDS011;63614;56.026;35.960;2024-03-29T06:30:58;19.60;;;10.10;;
75044;SDS011;63614;56.026;35.960;2024-03-29T06:33:27;23.02;;;10.68;;
75044;SDS011;63614;56.026;35.960;2024-03-29T06:35:54;27.80;;;10.00;;
75044;SDS011;63614;56.026;35.960;2024-03-29T06:38:20;17.40;;;9.23;;
75044;SDS011;63614;56.026;35.960;2024-03-29T06:40:46;22.13;;;9.80;;
75044;SDS011;63614;56.026;35.960;2024-03-29T06:43:13;25.05;;;9.32;;
75044;SDS011;63614;56.026;35.960;2024-03-29T06:45:42;17.90;;;8.63;;
75044;SDS011;63614;56.026;35.960;2024-03-29T06:48:08;23.02;;;9.13;;
75044;SDS011;63614;56.026;35.960;2024-03-29T06:50:34;21.92;;;9.35;;
75044;SDS011;63614;56.026;35.960;2024-03-29T06:53:00;19.60;;;9.38;;
75044;SDS011;63614;56.026;35.960;2024-03-29T06:55:26;18.85;;;9.10;;
75044;SDS011;63614;56.026;35.960;2024-03-29T06:57:52;19.25;;;9.57;;
75044;SDS011;63614;56.026;35.960;2024-03-29T07:00:18;18.42;;;9.10;;
75044;SDS011;63614;56.026;35.960;2024-03-29T07:02:44;21.00;;;9.30;;
75044;SDS011;63614;56.026;35.960;2024-03-29T07:05:10;26.83;;;10.43;;
75044;SDS011;63614;56.026;35.960;2024-03-29T07:07:37;19.00;;;10.10;;
75044;SDS011;63614;56.026;35.960;2024-03-29T07:10:04;19.05;;;8.90;;
75044;SDS011;63614;56.026;35.960;2024-03-29T07:12:30;18.50;;;9.38;;
75044;SDS011;63614;56.026;35.960;2024-03-29T07:14:56;16.80;;;9.45;;
75044;SDS011;63614;56.026;35.960;2024-03-29T07:17:22;20.25;;;9.60;;
75044;SDS011;63614;56.026;35.960;2024-03-29T07:19:48;15.73;;;9.15;;
75044;SDS011;63614;56.026;35.960;2024-03-29T07:22:14;19.52;;;9.60;;
75044;SDS011;63614;56.026;35.960;2024-03-29T07:24:39;18.58;;;9.23;;
75044;SDS011;63614;56.026;35.960;2024-03-29T07:27:05;21.80;;;9.13;;
75044;SDS011;63614;56.026;35.960;2024-03-29T07:29:31;18.40;;;9.55;;
75044;SDS011;63614;56.026;35.960;2024-03-29T07:32:00;17.70;;;9.38;;
75044;SDS011;63614;56.026;35.960;2024-03-29T07:34:26;19.08;;;9.43;;
75044;SDS011;63614;56.026;35.960;2024-03-29T07:36:52;19.73;;;10.27;;
75044;SDS011;63614;56.026;35.960;2024-03-29T07:39:17;22.40;;;10.13;;
75044;SDS011;63614;56.026;35.960;2024-03-29T07:41:45;19.60;;;9.48;;
75044;SDS011;63614;56.026;35.960;2024-03-29T07:46:37;24.98;;;9.38;;
75044;SDS011;63614;56.026;35.960;2024-03-29T07:49:05;25.35;;;9.13;;
75044;SDS011;63614;56.026;35.960;2024-03-29T07:51:31;20.70;;;9.73;;
75044;SDS011;63614;56.026;35.960;2024-03-29T07:53:57;24.35;;;9.90;;
75044;SDS011;63614;56.026;35.960;2024-03-29T07:56:23;20.20;;;9.75;;
75044;SDS011;63614;56.026;35.960;2024-03-29T07:58:52;18.17;;;9.77;;
75044;SDS011;63614;56.026;35.960;2024-03-29T08:01:22;17.55;;;10.07;;
75044;SDS011;63614;56.026;35.960;2024-03-29T08:03:52;20.45;;;10.35;;
75044;SDS011;63614;56.026;35.960;2024-03-29T08:06:21;17.73;;;10.23;;
75044;SDS011;63614;56.026;35.960;2024-03-29T08:08:49;20.95;;;10.18;;
75044;SDS011;63614;56.026;35.960;2024-03-29T08:11:16;20.33;;;10.80;;
75044;SDS011;63614;56.026;35.960;2024-03-29T08:13:42;20.67;;;10.52;;
75044;SDS011;63614;56.026;35.960;2024-03-29T08:16:08;21.33;;;10.30;;
75044;SDS011;63614;56.026;35.960;2024-03-29T08:18:34;47.38;;;11.63;;
75044;SDS011;63614;56.026;35.960;2024-03-29T08:21:00;21.63;;;10.23;;
75044;SDS011;63614;56.026;35.960;2024-03-29T08:23:27;20.50;;;10.00;;
75044;SDS011;63614;56.026;35.960;2024-03-29T08:25:52;20.40;;;10.68;;
75044;SDS011;63614;56.026;35.960;2024-03-29T08:28:22;19.65;;;10.95;;
75044;SDS011;63614;56.026;35.960;2024-03-29T08:31:02;22.00;;;11.07;;
75044;SDS011;63614;56.026;35.960;2024-03-29T08:33:29;18.52;;;10.80;;
75044;SDS011;63614;56.026;35.960;2024-03-29T08:35:56;21.15;;;11.05;;
75044;SDS011;63614;56.026;35.960;2024-03-29T08:38:23;21.13;;;11.32;;
75044;SDS011;63614;56.026;35.960;2024-03-29T08:40:49;20.95;;;10.93;;
75044;SDS011;63614;56.026;35.960;2024-03-29T08:43:15;22.27;;;11.32;;
75044;SDS011;63614;56.026;35.960;2024-03-29T08:45:44;19.83;;;10.77;;
75044;SDS011;63614;56.026;35.960;2024-03-29T08:48:11;22.45;;;11.55;;
75044;SDS011;63614;56.026;35.960;2024-03-29T08:50:37;23.60;;;11.55;;
75044;SDS011;63614;56.026;35.960;2024-03-29T08:53:03;27.70;;;11.23;;
75044;SDS011;63614;56.026;35.960;2024-03-29T08:55:30;19.88;;;11.27;;
75044;SDS011;63614;56.026;35.960;2024-03-29T08:58:00;22.23;;;10.50;;
75044;SDS011;63614;56.026;35.960;2024-03-29T09:00:28;21.77;;;10.20;;
75044;SDS011;63614;56.026;35.960;2024-03-29T09:02:55;25.20;;;10.73;;
75044;SDS011;63614;56.026;35.960;2024-03-29T09:05:23;23.58;;;11.38;;
75044;SDS011;63614;56.026;35.960;2024-03-29T09:07:50;25.05;;;11.90;;
75044;SDS011;63614;56.026;35.960;2024-03-29T09:10:16;20.73;;;10.32;;
75044;SDS011;63614;56.026;35.960;2024-03-29T09:12:44;21.13;;;10.63;;
75044;SDS011;63614;56.026;35.960;2024-03-29T09:15:10;20.58;;;11.13;;
75044;SDS011;63614;56.026;35.960;2024-03-29T09:17:39;20.83;;;10.82;;
75044;SDS011;63614;56.026;35.960;2024-03-29T09:20:06;21.58;;;11.50;;
75044;SDS011;63614;56.026;35.960;2024-03-29T09:22:33;19.60;;;10.67;;
75044;SDS011;63614;56.026;35.960;2024-03-29T09:24:59;28.57;;;11.17;;
75044;SDS011;63614;56.026;35.960;2024-03-29T09:27:26;21.45;;;11.50;;
75044;SDS011;63614;56.026;35.960;2024-03-29T09:29:54;22.92;;;11.60;;
75044;SDS011;63614;56.026;35.960;2024-03-29T09:32:21;24.35;;;11.38;;
75044;SDS011;63614;56.026;35.960;2024-03-29T09:34:48;26.50;;;11.15;;
75044;SDS011;63614;56.026;35.960;2024-03-29T09:37:14;25.80;;;11.18;;
75044;SDS011;63614;56.026;35.960;2024-03-29T09:39:40;27.52;;;12.15;;
75044;SDS011;63614;56.026;35.960;2024-03-29T09:42:07;23.73;;;11.68;;
75044;SDS011;63614;56.026;35.960;2024-03-29T09:44:39;16.55;;;10.85;;
75044;SDS011;63614;56.026;35.960;2024-03-29T09:47:06;24.85;;;10.77;;
75044;SDS011;63614;56.026;35.960;2024-03-29T09:49:32;24.13;;;12.30;;
75044;SDS011;63614;56.026;35.960;2024-03-29T09:51:59;19.40;;;10.68;;
75044;SDS011;63614;56.026;35.960;2024-03-29T09:54:28;18.50;;;10.67;;
75044;SDS011;63614;56.026;35.960;2024-03-29T09:56:55;20.77;;;11.48;;
75044;SDS011;63614;56.026;35.960;2024-03-29T09:59:22;33.42;;;11.98;;
75044;SDS011;63614;56.026;35.960;2024-03-29T10:01:50;17.75;;;10.55;;
75044;SDS011;63614;56.026;35.960;2024-03-29T10:06:45;23.27;;;9.65;;
75044;SDS011;63614;56.026;35.960;2024-03-29T10:09:18;30.73;;;10.93;;
75044;SDS011;63614;56.026;35.960;2024-03-29T10:11:45;23.45;;;11.02;;
75044;SDS011;63614;56.026;35.960;2024-03-29T10:14:11;21.70;;;10.80;;
75044;SDS011;63614;56.026;35.960;2024-03-29T10:16:37;23.52;;;10.73;;
75044;SDS011;63614;56.026;35.960;2024-03-29T10:19:03;22.17;;;11.32;;
75044;SDS011;63614;56.026;35.960;2024-03-29T10:21:30;31.60;;;10.87;;
75044;SDS011;63614;56.026;35.960;2024-03-29T10:23:56;28.13;;;10.35;;
75044;SDS011;63614;56.026;35.960;2024-03-29T10:26:21;25.48;;;11.32;;
75044;SDS011;63614;56.026;35.960;2024-03-29T10:28:47;27.15;;;11.68;;
75044;SDS011;63614;56.026;35.960;2024-03-29T10:31:14;25.77;;;11.57;;
75044;SDS011;63614;56.026;35.960;2024-03-29T10:33:43;22.63;;;11.05;;
75044;SDS011;63614;56.026;35.960;2024-03-29T10:36:09;21.85;;;11.10;;
75044;SDS011;63614;56.026;35.960;2024-03-29T10:38:37;25.50;;;11.57;;
75044;SDS011;63614;56.026;35.960;2024-03-29T10:41:04;23.60;;;10.95;;
75044;SDS011;63614;56.026;35.960;2024-03-29T10:46:00;22.10;;;11.23;;
75044;SDS011;63614;56.026;35.960;2024-03-29T10:48:26;23.13;;;11.77;;
75044;SDS011;63614;56.026;35.960;2024-03-29T10:50:55;18.63;;;10.98;;
75044;SDS011;63614;56.026;35.960;2024-03-29T10:53:22;28.73;;;12.50;;
75044;SDS011;63614;56.026;35.960;2024-03-29T10:55:56;19.60;;;11.48;;
75044;SDS011;63614;56.026;35.960;2024-03-29T10:58:29;21.50;;;11.73;;
75044;SDS011;63614;56.026;35.960;2024-03-29T11:00:59;25.27;;;11.25;;
75044;SDS011;63614;56.026;35.960;2024-03-29T11:03:35;28.75;;;11.80;;
75044;SDS011;63614;56.026;35.960;2024-03-29T11:06:09;29.92;;;11.48;;
75044;SDS011;63614;56.026;35.960;2024-03-29T11:08:38;27.17;;;10.73;;
75044;SDS011;63614;56.026;35.960;2024-03-29T11:11:11;26.00;;;10.20;;
75044;SDS011;63614;56.026;35.960;2024-03-29T11:16:10;22.20;;;10.38;;
75044;SDS011;63614;56.026;35.960;2024-03-29T11:18:37;23.77;;;11.18;;
75044;SDS011;63614;56.026;35.960;2024-03-29T11:21:04;19.50;;;10.57;;
75044;SDS011;63614;56.026;35.960;2024-03-29T11:23:34;29.13;;;11.80;;
75044;SDS011;63614;56.026;35.960;2024-03-29T11:26:01;27.77;;;11.50;;
75044;SDS011;63614;56.026;35.960;2024-03-29T11:28:31;27.08;;;11.30;;
75044;SDS011;63614;56.026;35.960;2024-03-29T11:31:00;17.80;;;10.55;;
75044;SDS011;63614;56.026;35.960;2024-03-29T11:33:51;36.30;;;11.20;;
75044;SDS011;63614;56.026;35.960;2024-03-29T11:36:21;28.98;;;10.27;;
75044;SDS011;63614;56.026;35.960;2024-03-29T11:38:53;22.85;;;10.70;;
75044;SDS011;63614;56.026;35.960;2024-03-29T11:41:20;20.17;;;10.05;;
75044;SDS011;63614;56.026;35.960;2024-03-29T11:43:53;19.67;;;10.63;;
75044;SDS011;63614;56.026;35.960;2024-03-29T11:46:19;22.33;;;9.75;;
75044;SDS011;63614;56.026;35.960;2024-03-29T11:48:46;22.93;;;9.40;;
75044;SDS011;63614;56.026;35.960;2024-03-29T11:51:16;20.83;;;9.13;;
75044;SDS011;63614;56.026;35.960;2024-03-29T11:53:44;26.98;;;8.52;;
75044;SDS011;63614;56.026;35.960;2024-03-29T11:56:10;28.45;;;9.55;;
75044;SDS011;63614;56.026;35.960;2024-03-29T11:58:39;19.50;;;9.45;;
75044;SDS011;63614;56.026;35.960;2024-03-29T12:01:06;25.27;;;9.13;;
75044;SDS011;63614;56.026;35.960;2024-03-29T12:03:39;16.67;;;9.50;;
75044;SDS011;63614;56.026;35.960;2024-03-29T12:06:06;19.90;;;9.02;;
75044;SDS011;63614;56.026;35.960;2024-03-29T12:08:32;21.73;;;9.93;;
75044;SDS011;63614;56.026;35.960;2024-03-29T12:11:00;19.52;;;9.68;;
75044;SDS011;63614;56.026;35.960;2024-03-29T12:13:27;22.25;;;10.07;;
75044;SDS011;63614;56.026;35.960;2024-03-29T12:15:54;20.42;;;9.07;;
75044;SDS011;63614;56.026;35.960;2024-03-29T12:18:20;20.25;;;8.60;;
75044;SDS011;63614;56.026;35.960;2024-03-29T12:20:48;21.70;;;9.15;;
75044;SDS011;63614;56.026;35.960;2024-03-29T12:23:15;17.83;;;8.45;;
75044;SDS011;63614;56.026;35.960;2024-03-29T12:25:42;19.85;;;8.55;;
75044;SDS011;63614;56.026;35.960;2024-03-29T12:28:09;18.30;;;8.30;;
75044;SDS011;63614;56.026;35.960;2024-03-29T12:33:05;17.98;;;8.75;;
75044;SDS011;63614;56.026;35.960;2024-03-29T12:35:32;21.55;;;10.40;;
75044;SDS011;63614;56.026;35.960;2024-03-29T12:38:00;21.38;;;10.05;;
75044;SDS011;63614;56.026;35.960;2024-03-29T12:40:29;16.35;;;8.80;;
75044;SDS011;63614;56.026;35.960;2024-03-29T12:43:04;18.15;;;8.82;;
75044;SDS011;63614;56.026;35.960;2024-03-29T12:45:31;21.33;;;8.75;;
75044;SDS011;63614;56.026;35.960;2024-03-29T12:47:57;19.13;;;8.95;;
75044;SDS011;63614;56.026;35.960;2024-03-29T12:50:31;16.52;;;9.05;;
75044;SDS011;63614;56.026;35.960;2024-03-29T12:52:58;21.38;;;9.65;;
75044;SDS011;63614;56.026;35.960;2024-03-29T12:55:44;18.35;;;9.65;;
75044;SDS011;63614;56.026;35.960;2024-03-29T12:58:16;20.45;;;9.85;;
75044;SDS011;63614;56.026;35.960;2024-03-29T13:00:44;19.17;;;9.98;;
75044;SDS011;63614;56.026;35.960;2024-03-29T13:03:11;26.88;;;10.70;;
75044;SDS011;63614;56.026;35.960;2024-03-29T13:05:38;20.13;;;10.75;;
75044;SDS011;63614;56.026;35.960;2024-03-29T13:08:09;20.77;;;9.55;;
75044;SDS011;63614;56.026;35.960;2024-03-29T13:10:40;22.30;;;10.13;;
75044;SDS011;63614;56.026;35.960;2024-03-29T13:13:06;25.85;;;11.50;;
75044;SDS011;63614;56.026;35.960;2024-03-29T13:15:33;19.98;;;10.40;;
75044;SDS011;63614;56.026;35.960;2024-03-29T13:18:01;20.80;;;10.23;;
75044;SDS011;63614;56.026;35.960;2024-03-29T13:20:29;19.15;;;10.60;;
75044;SDS011;63614;56.026;35.960;2024-03-29T13:22:57;23.97;;;11.53;;
75044;SDS011;63614;56.026;35.960;2024-03-29T13:25:24;26.55;;;12.48;;
75044;SDS011;63614;56.026;35.960;2024-03-29T13:27:50;24.20;;;11.23;;
75044;SDS011;63614;56.026;35.960;2024-03-29T13:30:19;25.55;;;10.70;;
75044;SDS011;63614;56.026;35.960;2024-03-29T13:32:50;21.77;;;10.75;;
75044;SDS011;63614;56.026;35.960;2024-03-29T13:35:17;18.33;;;10.43;;
75044;SDS011;63614;56.026;35.960;2024-03-29T13:37:51;20.60;;;10.27;;
75044;SDS011;63614;56.026;35.960;2024-03-29T13:40:22;22.27;;;10.05;;
75044;SDS011;63614;56.026;35.960;2024-03-29T13:42:52;22.33;;;9.90;;
75044;SDS011;63614;56.026;35.960;2024-03-29T13:45:18;19.50;;;9.23;;
75044;SDS011;63614;56.026;35.960;2024-03-29T13:47:44;20.27;;;10.43;;
75044;SDS011;63614;56.026;35.960;2024-03-29T13:50:13;20.02;;;10.55;;
75044;SDS011;63614;56.026;35.960;2024-03-29T13:52:41;24.88;;;10.73;;
75044;SDS011;63614;56.026;35.960;2024-03-29T13:55:09;18.17;;;9.75;;
75044;SDS011;63614;56.026;35.960;2024-03-29T13:57:35;18.27;;;8.93;;
75044;SDS011;63614;56.026;35.960;2024-03-29T14:00:05;22.80;;;10.05;;
75044;SDS011;63614;56.026;35.960;2024-03-29T14:02:34;16.83;;;9.05;;
75044;SDS011;63614;56.026;35.960;2024-03-29T14:05:01;20.43;;;8.93;;
75044;SDS011;63614;56.026;35.960;2024-03-29T14:07:31;22.15;;;9.27;;
75044;SDS011;63614;56.026;35.960;2024-03-29T14:09:57;18.38;;;8.93;;
75044;SDS011;63614;56.026;35.960;2024-03-29T14:12:24;18.27;;;9.00;;
75044;SDS011;63614;56.026;35.960;2024-03-29T14:14:53;18.65;;;9.13;;
75044;SDS011;63614;56.026;35.960;2024-03-29T14:17:19;19.05;;;8.07;;
75044;SDS011;63614;56.026;35.960;2024-03-29T14:19:47;19.92;;;9.13;;
75044;SDS011;63614;56.026;35.960;2024-03-29T14:22:14;19.65;;;7.82;;
75044;SDS011;63614;56.026;35.960;2024-03-29T14:24:46;20.77;;;8.13;;
75044;SDS011;63614;56.026;35.960;2024-03-29T14:27:12;16.08;;;7.78;;
75044;SDS011;63614;56.026;35.960;2024-03-29T14:29:39;17.60;;;7.55;;
75044;SDS011;63614;56.026;35.960;2024-03-29T14:32:05;13.90;;;8.45;;